Time;durP1;ratioP1;P1;durP2;ratioP2;P2;SDS_P1;SDS_P2;PMS_P1;PMS_P2;Temp;Humidity;BMP_temperature;BMP_pressure;BME280_temperature;BME280_humidity;BME280_pressure;Samples;Min_cycle;Max_cycle;Signal;HPM_P1;HPM_P2
2021/05/14 00:00:54;;;;;;;9.80;7.45;;;;;;;13.51;72.00;98837.95;2140273;83;29551;-68
2021/05/14 00:03:55;;;;;;;11.10;6.85;;;;;;;13.49;71.98;98842.13;2142742;81;27611;-63
2021/05/14 00:06:58;;;;;;;11.48;7.33;;;;;;;13.50;72.15;98845.18;2178746;81;29592;-63
2021/05/14 00:10:00;;;;;;;10.28;7.40;;;;;;;13.52;72.06;98846.38;2151982;81;31721;-66
2021/05/14 00:13:02;;;;;;;11.90;7.28;;;;;;;13.51;72.10;98842.85;2141010;83;33555;-64
2021/05/14 00:16:07;;;;;;;11.95;7.85;;;;;;;13.49;72.15;98845.30;2141121;83;29585;-63
2021/05/14 00:19:08;;;;;;;9.50;7.50;;;;;;;13.46;72.20;98849.61;2154846;81;27656;-67
2021/05/14 00:22:10;;;;;;;11.55;7.65;;;;;;;13.45;72.17;98853.29;2177767;81;29762;-63
2021/05/14 00:25:13;;;;;;;9.95;7.53;;;;;;;13.45;72.29;98850.09;2178359;81;31165;-67
2021/05/14 00:28:15;;;;;;;11.03;7.35;;;;;;;13.45;72.29;98847.91;2178387;81;32802;-68
2021/05/14 00:31:17;;;;;;;12.53;8.08;;;;;;;13.47;72.34;98852.16;2163524;81;29031;-67
2021/05/14 00:34:19;;;;;;;13.83;7.75;;;;;;;13.49;72.34;98850.20;2141096;83;27600;-69
2021/05/14 00:37:21;;;;;;;10.75;7.65;;;;;;;13.49;72.32;98858.74;2140941;83;29315;-70
2021/05/14 00:40:23;;;;;;;18.10;14.43;;;;;;;13.47;72.36;98858.05;2141203;83;31945;-65
2021/05/14 00:43:25;;;;;;;11.65;7.85;;;;;;;13.45;72.40;98862.20;2153486;81;33316;-69
2021/05/14 00:46:27;;;;;;;9.50;7.58;;;;;;;13.47;72.40;98859.39;2178136;81;31118;-65
2021/05/14 00:49:28;;;;;;;13.50;7.53;;;;;;;13.49;72.40;98868.16;2156819;81;27595;-64
2021/05/14 00:52:30;;;;;;;9.30;7.60;;;;;;;13.48;72.36;98865.14;2141609;81;28932;-64
2021/05/14 00:55:32;;;;;;;12.90;8.15;;;;;;;13.49;72.42;98860.09;2178121;81;33144;-63
2021/05/14 00:58:34;;;;;;;11.00;7.95;;;;;;;13.49;72.39;98867.69;2178173;81;33385;-64
2021/05/14 01:01:36;;;;;;;11.55;8.20;;;;;;;13.48;72.43;98864.63;2178315;81;29358;-63
2021/05/14 01:04:40;;;;;;;10.82;8.50;;;;;;;13.46;72.43;98870.63;2152146;81;27581;-66
2021/05/14 01:07:42;;;;;;;10.10;7.92;;;;;;;13.45;72.44;98870.27;2118600;83;28829;-64
2021/05/14 01:10:44;;;;;;;11.63;8.15;;;;;;;13.43;72.41;98867.36;2141102;83;31978;-63
2021/05/14 01:13:45;;;;;;;11.88;8.43;;;;;;;13.41;72.50;98869.31;2165945;78;33310;-59
2021/05/14 01:16:48;;;;;;;11.08;8.33;;;;;;;13.41;72.49;98865.28;2177867;81;29598;-59
2021/05/14 01:19:50;;;;;;;14.25;8.15;;;;;;;13.38;72.55;98867.21;2177838;81;27593;-60
2021/05/14 01:22:52;;;;;;;15.98;8.93;;;;;;;13.36;72.65;98862.45;2173578;81;29795;-61
2021/05/14 01:25:53;;;;;;;11.35;8.25;;;;;;;13.34;72.56;98860.38;2177050;81;31920;-60
2021/05/14 01:28:56;;;;;;;10.55;7.83;;;;;;;13.35;72.68;98861.25;2177797;81;33620;-61
2021/05/14 01:31:58;;;;;;;13.80;8.25;;;;;;;13.35;72.74;98857.22;2175946;81;29203;-61
2021/05/14 01:34:59;;;;;;;14.53;9.70;;;;;;;13.33;72.68;98865.91;2170872;82;28039;-60
2021/05/14 01:38:01;;;;;;;9.53;7.45;;;;;;;13.31;72.72;98860.66;2170774;82;29126;-59
2021/05/14 01:41:04;;;;;;;12.10;7.47;;;;;;;13.33;72.80;98868.59;2170770;82;31371;-62
2021/05/14 01:44:07;;;;;;;13.65;8.20;;;;;;;13.33;72.87;98868.08;2171508;81;33819;-60
2021/05/14 01:47:08;;;;;;;11.40;7.62;;;;;;;13.33;72.74;98867.25;2171119;81;29043;-58
2021/05/14 01:50:12;;;;;;;11.05;7.78;;;;;;;13.29;72.77;98861.75;2170834;82;27710;-60
2021/05/14 01:53:13;;;;;;;12.13;8.08;;;;;;;13.29;72.85;98858.59;2169663;82;28676;-59
2021/05/14 01:56:15;;;;;;;11.75;8.18;;;;;;;13.29;72.88;98859.06;2129173;83;31142;-60
2021/05/14 01:59:17;;;;;;;9.70;6.95;;;;;;;13.30;72.87;98856.73;2129316;83;33314;-59
2021/05/14 02:02:21;;;;;;;11.53;8.00;;;;;;;13.27;72.92;98857.86;2129215;83;29155;-59
2021/05/14 02:05:23;;;;;;;11.15;7.92;;;;;;;13.25;72.93;98860.30;2117893;83;27644;-61
2021/05/14 02:08:24;;;;;;;14.30;8.20;;;;;;;13.25;72.99;98857.61;2113714;84;29780;-58
2021/05/14 02:11:26;;;;;;;11.68;7.33;;;;;;;13.22;72.99;98858.26;2113662;84;31391;-60
2021/05/14 02:14:28;;;;;;;11.70;7.97;;;;;;;13.23;73.05;98856.41;2114259;84;34089;-61
2021/05/14 02:17:30;;;;;;;9.45;7.10;;;;;;;13.23;73.05;98859.09;2134972;82;29644;-65
2021/05/14 02:20:33;;;;;;;11.22;7.67;;;;;;;13.24;73.10;98856.77;2139805;82;27585;-60
2021/05/14 02:23:35;;;;;;;15.10;8.75;;;;;;;13.22;73.08;98856.04;2114401;84;28676;-63
2021/05/14 02:26:38;;;;;;;16.67;8.80;;;;;;;13.20;73.10;98848.59;2128615;82;31216;-59
2021/05/14 02:29:40;;;;;;;10.20;7.42;;;;;;;13.20;73.24;98852.15;2135447;82;34119;-59
2021/05/14 02:32:42;;;;;;;12.33;7.83;;;;;;;13.21;73.18;98857.89;2148749;82;29784;-59
2021/05/14 02:35:43;;;;;;;13.03;8.00;;;;;;;13.21;73.18;98855.20;2148311;82;27512;-60
2021/05/14 02:38:45;;;;;;;9.45;7.33;;;;;;;13.21;73.23;98857.02;2114608;84;28661;-59
2021/05/14 02:41:47;;;;;;;15.28;8.15;;;;;;;13.20;73.18;98858.00;2114616;84;31055;-62
2021/05/14 02:44:49;;;;;;;11.25;7.30;;;;;;;13.19;73.19;98861.67;2114568;84;32945;-61
2021/05/14 02:47:51;;;;;;;9.75;7.33;;;;;;;13.19;73.21;98867.92;2138638;82;30080;-65
2021/05/14 02:50:53;;;;;;;12.85;7.90;;;;;;;13.18;73.20;98870.24;2148724;82;27630;-60
2021/05/14 02:53:55;;;;;;;12.40;7.62;;;;;;;13.18;73.20;98871.59;2148626;82;29943;-58
2021/05/14 02:56:57;;;;;;;11.63;7.15;;;;;;;13.17;73.30;98871.23;2148777;82;31686;-59
2021/05/14 03:00:00;;;;;;;12.33;7.95;;;;;;;13.19;73.30;98875.12;2148621;82;33180;-59
2021/05/14 03:03:01;;;;;;;13.03;7.85;;;;;;;13.20;73.27;98873.66;2148624;82;30274;-59
2021/05/14 03:06:03;;;;;;;11.08;6.90;;;;;;;13.20;73.23;98876.83;2148823;82;27817;-59
2021/05/14 03:09:06;;;;;;;10.53;6.95;;;;;;;13.21;73.30;98874.03;2122775;82;28628;-59
2021/05/14 03:12:08;;;;;;;16.15;6.78;;;;;;;13.20;73.25;98877.70;2114530;84;31057;-58
2021/05/14 03:15:12;;;;;;;10.48;6.08;;;;;;;13.21;73.23;98883.91;2114430;84;33322;-59
2021/05/14 03:18:14;;;;;;;11.88;6.70;;;;;;;13.21;73.19;98882.57;2119136;82;28957;-60
2021/05/14 03:21:15;;;;;;;12.88;6.28;;;;;;;13.21;73.18;98875.84;2114780;84;27632;-62
2021/05/14 03:24:19;;;;;;;10.20;5.50;;;;;;;13.20;73.18;98879.05;2114674;84;29663;-58
2021/05/14 03:27:21;;;;;;;8.58;5.40;;;;;;;13.19;73.23;98886.75;2114773;84;32180;-59
2021/05/14 03:30:22;;;;;;;8.48;5.67;;;;;;;13.18;73.11;98889.55;2146796;82;34247;-60
2021/05/14 03:33:24;;;;;;;7.17;4.80;;;;;;;13.19;73.18;98897.97;2148825;82;30101;-58
2021/05/14 03:36:26;;;;;;;6.35;5.15;;;;;;;13.17;73.15;98897.24;2149052;82;27537;-58
2021/05/14 03:39:28;;;;;;;11.63;5.53;;;;;;;13.17;73.16;98898.59;2126988;82;29978;-59
2021/05/14 03:42:30;;;;;;;8.75;5.10;;;;;;;13.17;73.16;98899.94;2114647;84;31829;-58
2021/05/14 03:45:33;;;;;;;10.70;6.42;;;;;;;13.14;73.09;98907.77;2114710;84;33384;-58
2021/05/14 03:48:35;;;;;;;6.60;5.25;;;;;;;13.15;73.10;98907.30;2114703;84;30179;-58
2021/05/14 03:51:39;;;;;;;9.90;5.22;;;;;;;13.15;73.09;98907.30;2137605;82;27612;-58
2021/05/14 03:54:42;;;;;;;6.85;5.55;;;;;;;13.15;73.05;98914.86;2148568;82;29503;-59
2021/05/14 03:57:44;;;;;;;7.35;5.65;;;;;;;13.15;73.08;98913.52;2132987;82;33203;-61
2021/05/14 04:00:46;;;;;;;6.92;5.75;;;;;;;13.14;73.10;98913.66;2114772;84;32960;-62
2021/05/14 04:03:50;;;;;;;8.75;5.53;;;;;;;13.13;73.04;98911.95;2141772;82;30112;-59
2021/05/14 04:06:52;;;;;;;7.47;5.58;;;;;;;13.12;73.11;98912.93;2149128;82;27604;-59
2021/05/14 04:10:13;;;;;;;7.85;6.00;;;;;;;13.12;73.11;98916.45;2141880;82;28982;-59
2021/05/14 04:16:38;;;;;;;9.10;6.62;;;;;;;13.12;73.21;98911.08;2114833;84;33712;-59
2021/05/14 04:19:40;;;;;;;9.20;5.60;;;;;;;13.12;73.11;98911.58;2114634;84;28822;-61
2021/05/14 04:22:41;;;;;;;8.15;6.58;;;;;;;13.13;73.19;98913.30;2114819;83;27661;-59
2021/05/14 04:25:43;;;;;;;8.43;6.40;;;;;;;13.16;73.23;98921.95;2114877;84;29010;-59
2021/05/14 04:28:45;;;;;;;12.30;7.25;;;;;;;13.15;73.12;98914.86;2114713;84;31382;-62
2021/05/14 04:31:47;;;;;;;8.70;6.60;;;;;;;13.15;73.13;98917.55;2114650;84;33962;-59
2021/05/14 04:34:50;;;;;;;8.68;6.60;;;;;;;13.17;73.01;98917.41;2114618;84;29210;-60
2021/05/14 04:37:52;;;;;;;10.32;6.60;;;;;;;13.18;73.08;98918.65;2114922;84;27599;-59
2021/05/14 04:40:53;;;;;;;9.45;6.97;;;;;;;13.18;73.07;98922.69;2114574;84;29766;-67
2021/05/14 04:43:55;;;;;;;8.20;6.75;;;;;;;13.20;73.00;98927.45;2114725;83;31976;-69
2021/05/14 04:46:57;;;;;;;7.90;6.08;;;;;;;13.22;73.06;98930.00;2114626;84;32986;-59
2021/05/14 04:49:59;;;;;;;7.37;5.72;;;;;;;13.26;73.02;98922.52;2114654;83;29746;-59
2021/05/14 04:53:05;;;;;;;9.23;5.62;;;;;;;13.23;72.84;98930.36;2114727;84;28275;-61
2021/05/14 04:56:06;;;;;;;8.90;6.60;;;;;;;13.21;72.86;98930.50;2114582;84;28603;-58
2021/05/14 04:59:08;;;;;;;8.10;5.75;;;;;;;13.20;72.93;98931.95;2114558;83;31686;-58
2021/05/14 05:02:11;;;;;;;7.10;5.50;;;;;;;13.18;72.82;98933.44;2114944;83;33233;-58
2021/05/14 05:05:13;;;;;;;9.00;6.00;;;;;;;13.20;72.88;98934.17;2114461;83;30131;-58
2021/05/14 05:08:15;;;;;;;7.65;5.80;;;;;;;13.22;72.82;98942.97;2114864;84;27638;-59
2021/05/14 05:11:17;;;;;;;10.38;5.70;;;;;;;13.23;72.84;98950.53;2114808;84;29000;-60
2021/05/14 05:14:20;;;;;;;8.05;5.60;;;;;;;13.24;72.86;98955.44;2117504;83;31958;-58
2021/05/14 05:17:22;;;;;;;7.00;5.25;;;;;;;13.28;72.86;98955.52;2128145;83;33717;-60
2021/05/14 05:20:24;;;;;;;6.28;5.40;;;;;;;13.35;72.93;98956.73;2128309;83;30116;-59
2021/05/14 05:23:26;;;;;;;8.95;5.85;;;;;;;13.40;72.71;98955.00;2128415;83;27641;-60
2021/05/14 05:26:28;;;;;;;8.43;4.83;;;;;;;13.40;72.65;98958.59;2112733;83;29601;-60
2021/05/14 05:29:31;;;;;;;6.40;5.08;;;;;;;13.42;72.60;98960.64;2123306;83;31436;-60
2021/05/14 05:32:33;;;;;;;7.05;4.20;;;;;;;13.43;72.54;98956.13;2128249;83;33555;-59
2021/05/14 05:35:35;;;;;;;6.15;4.40;;;;;;;13.45;72.49;98966.28;2128297;83;29538;-63
2021/05/14 05:38:37;;;;;;;8.80;6.60;;;;;;;13.46;72.45;98967.98;2120493;83;28080;-59
2021/05/14 05:41:39;;;;;;;5.08;4.25;;;;;;;13.47;72.31;98971.05;2109585;83;29783;-59
2021/05/14 05:44:42;;;;;;;8.25;6.05;;;;;;;13.50;72.42;98962.22;2109521;84;31256;-59
2021/05/14 05:47:43;;;;;;;5.40;4.35;;;;;;;13.52;72.29;98966.98;2109631;84;33420;-59
2021/05/14 05:50:47;;;;;;;6.90;3.77;;;;;;;13.58;72.24;98964.27;2109659;84;30262;-60
2021/05/14 05:53:48;;;;;;;4.78;3.20;;;;;;;13.67;72.21;98968.02;2117961;83;27769;-60
2021/05/14 05:56:57;;;;;;;4.45;3.33;;;;;;;13.75;72.06;98972.75;2108797;83;29208;-60
2021/05/14 05:59:56;;;;;;;6.00;3.90;;;;;;;13.82;71.90;98976.62;2107463;84;31177;-61
2021/05/14 06:02:58;;;;;;;5.87;3.52;;;;;;;13.86;71.72;98975.89;2109113;84;34083;-59
2021/05/14 06:06:00;;;;;;;4.55;3.50;;;;;;;13.92;71.78;98982.08;2108944;83;29350;-59
2021/05/14 06:09:04;;;;;;;6.28;3.02;;;;;;;13.99;71.64;98983.27;2093852;84;27689;-59
2021/05/14 06:12:08;;;;;;;5.58;3.37;;;;;;;14.04;71.50;98979.70;2109457;84;28041;-59
2021/05/14 06:15:11;;;;;;;6.15;3.75;;;;;;;14.10;71.38;98983.71;2106199;84;31693;-59
2021/05/14 06:18:15;;;;;;;3.75;2.98;;;;;;;14.16;71.22;98989.89;2101398;84;33329;-60
2021/05/14 06:21:17;;;;;;;4.97;3.10;;;;;;;14.23;71.07;98996.98;2078636;84;29055;-62
2021/05/14 06:24:19;;;;;;;3.98;3.12;;;;;;;14.30;70.99;98995.45;2102537;84;27590;-60
2021/05/14 06:27:21;;;;;;;3.60;2.72;;;;;;;14.39;70.92;98991.98;2102437;84;29950;-60
2021/05/14 06:30:22;;;;;;;5.28;2.77;;;;;;;14.47;70.67;98997.17;2102367;84;32221;-61
2021/05/14 06:33:27;;;;;;;5.87;3.50;;;;;;;14.51;70.46;98999.97;2067300;86;33488;-60
2021/05/14 06:36:28;;;;;;;4.00;2.80;;;;;;;14.58;70.37;99001.13;2093085;84;29023;-60
2021/05/14 06:39:30;;;;;;;3.52;2.60;;;;;;;14.70;70.50;99008.19;2102480;84;27602;-59
2021/05/14 06:42:31;;;;;;;3.98;2.77;;;;;;;14.76;69.94;99001.87;2070478;84;29334;-60
2021/05/14 06:45:33;;;;;;;4.45;2.37;;;;;;;14.79;69.88;99010.57;2082946;84;31414;-59
2021/05/14 06:48:35;;;;;;;4.17;2.25;;;;;;;14.87;69.88;99012.08;2102572;84;34104;-58
2021/05/14 06:51:37;;;;;;;2.33;1.87;;;;;;;14.93;69.52;99011.19;2102642;84;29058;-58
2021/05/14 06:54:40;;;;;;;3.75;2.42;;;;;;;14.92;69.34;99016.22;2100996;83;27679;-58
2021/05/14 06:57:42;;;;;;;3.35;1.80;;;;;;;14.88;69.28;99016.99;2101695;84;29726;-59
2021/05/14 07:00:44;;;;;;;3.77;2.25;;;;;;;14.85;69.24;99025.34;2101737;84;31336;-59
2021/05/14 07:03:46;;;;;;;4.78;2.15;;;;;;;14.84;68.97;99035.27;2102551;84;33784;-58
2021/05/14 07:06:50;;;;;;;2.87;2.37;;;;;;;14.81;69.03;99041.43;2102604;84;30112;-59
2021/05/14 07:09:51;;;;;;;4.85;2.25;;;;;;;14.84;68.99;99039.31;2102646;84;27560;-59
2021/05/14 07:12:53;;;;;;;3.92;2.10;;;;;;;14.87;69.01;99041.73;2102415;84;29027;-61
2021/05/14 07:15:55;;;;;;;3.67;2.47;;;;;;;14.89;68.86;99038.42;2106678;84;31383;-60
2021/05/14 07:18:57;;;;;;;4.65;2.55;;;;;;;14.87;68.76;99047.13;2122527;83;33688;-60
2021/05/14 07:21:58;;;;;;;4.92;2.25;;;;;;;14.86;68.75;99048.13;2128322;83;29047;-60
2021/05/14 07:25:00;;;;;;;4.33;2.30;;;;;;;14.85;68.79;99054.50;2128262;83;28203;-59
2021/05/14 07:28:03;;;;;;;3.60;2.10;;;;;;;14.86;68.93;99046.77;2123537;83;29415;-57
2021/05/14 07:31:04;;;;;;;2.98;2.20;;;;;;;14.86;68.87;99051.33;2109711;84;31438;-57
2021/05/14 07:34:07;;;;;;;2.37;2.08;;;;;;;14.85;68.88;99058.55;2122313;83;34064;-58
2021/05/14 07:37:08;;;;;;;6.22;2.50;;;;;;;14.80;68.72;99050.50;2128367;83;29732;-59
2021/05/14 07:40:11;;;;;;;5.95;2.65;;;;;;;14.83;68.94;99056.98;2128228;83;27628;-58
2021/05/14 07:43:14;;;;;;;11.18;2.75;;;;;;;14.89;68.96;99056.45;2128188;83;29590;-58
2021/05/14 07:46:16;;;;;;;3.42;2.80;;;;;;;14.96;68.79;99056.77;2128391;83;31412;-59
2021/05/14 07:49:18;;;;;;;4.35;2.22;;;;;;;15.02;68.64;99053.51;2119871;83;33712;-58
2021/05/14 07:52:19;;;;;;;4.65;2.62;;;;;;;15.15;68.60;99055.47;2118008;83;29389;-59
2021/05/14 07:55:21;;;;;;;8.20;2.92;;;;;;;15.24;68.29;99057.00;2128418;83;27545;-59
2021/05/14 07:58:23;;;;;;;11.33;2.47;;;;;;;15.30;67.83;99051.91;2126026;83;28782;-60
2021/05/14 08:01:25;;;;;;;3.22;2.00;;;;;;;15.37;67.99;99060.81;2109683;84;30781;-58
2021/05/14 08:04:27;;;;;;;2.70;2.40;;;;;;;15.42;67.83;99059.88;2109788;84;32995;-59
2021/05/14 08:07:29;;;;;;;4.03;2.52;;;;;;;15.59;67.86;99061.07;2109683;84;30158;-57
2021/05/14 08:10:30;;;;;;;3.55;2.08;;;;;;;15.84;67.52;99062.87;2112279;83;28079;-59
2021/05/14 08:13:32;;;;;;;6.28;3.12;;;;;;;16.10;67.29;99057.80;2128292;83;29880;-58
2021/05/14 08:16:35;;;;;;;4.15;2.47;;;;;;;16.35;67.08;99067.67;2135009;83;32106;-60
2021/05/14 08:19:37;;;;;;;3.30;2.55;;;;;;;16.51;66.30;99067.94;2138529;83;33849;-67
2021/05/14 08:22:41;;;;;;;2.47;2.12;;;;;;;16.56;65.86;99071.55;2135252;83;30172;-69
2021/05/14 08:25:43;;;;;;;6.22;4.50;;;;;;;16.60;65.74;99071.63;2114882;83;27662;-58
2021/05/14 08:28:45;;;;;;;3.95;3.00;;;;;;;16.53;65.57;99072.70;2138484;83;29432;-60
2021/05/14 08:31:47;;;;;;;3.00;2.70;;;;;;;16.46;65.52;99079.67;2138559;83;30964;-58
2021/05/14 08:34:49;;;;;;;3.15;2.85;;;;;;;16.41;65.15;99086.00;2119767;82;33325;-60
2021/05/14 08:37:52;;;;;;;7.22;3.47;;;;;;;16.34;65.12;99080.83;2113808;84;29554;-59
2021/05/14 08:40:54;;;;;;;4.15;2.87;;;;;;;16.33;65.30;99084.53;2114024;84;27639;-59
2021/05/14 08:43:56;;;;;;;3.08;2.77;;;;;;;16.13;65.04;99074.23;2114999;83;28038;-59
2021/05/14 08:46:58;;;;;;;3.22;2.83;;;;;;;16.13;65.04;99074.23;2113880;83;31017;-59
2021/05/14 08:50:00;;;;;;;3.40;2.83;;;;;;;16.25;65.12;99094.70;2113737;84;33354;-59
2021/05/14 08:53:02;;;;;;;3.95;2.27;;;;;;;16.25;65.24;99103.66;2113773;84;29040;-61
2021/05/14 08:56:04;;;;;;;4.20;2.35;;;;;;;16.24;65.36;99106.51;2136676;83;27664;-58
2021/05/14 08:59:06;;;;;;;4.55;2.65;;;;;;;16.14;65.12;99107.86;2118850;82;29096;-59
2021/05/14 09:02:08;;;;;;;5.12;2.77;;;;;;;16.01;65.19;99114.88;2138419;83;31159;-58
2021/05/14 09:05:32;;;;;;;4.90;2.67;;;;;;;15.87;65.43;99109.89;2138440;83;33975;-58
2021/05/14 09:08:34;;;;;;;2.10;1.92;;;;;;;15.76;65.55;99117.58;2123154;82;29754;-59
2021/05/14 09:11:40;;;;;;;4.55;2.45;;;;;;;15.67;65.74;99119.77;2114282;84;27644;-59
2021/05/14 09:14:44;;;;;;;6.78;2.15;;;;;;;15.60;65.88;99126.22;2114964;83;28719;-59
2021/05/14 09:18:18;;;;;;;3.83;2.25;;;;;;;15.56;65.81;99131.53;2114431;84;30988;-59
2021/05/14 09:21:20;;;;;;;6.53;2.75;;;;;;;15.53;65.83;99131.32;2114518;84;33729;-58
2021/05/14 09:24:28;;;;;;;3.12;1.92;;;;;;;15.48;65.89;99134.41;2063651;85;30286;-58
2021/05/14 09:27:34;;;;;;;1.98;1.77;;;;;;;15.52;65.93;99128.73;2079581;85;27587;-61
2021/05/14 09:30:37;;;;;;;1.92;1.62;;;;;;;15.57;65.77;99130.54;2079254;85;29791;-60
2021/05/14 09:33:46;;;;;;;2.37;1.60;;;;;;;15.58;65.60;99135.79;2097785;84;31395;-59
2021/05/14 09:37:06;;;;;;;3.15;1.98;;;;;;;15.62;65.64;99130.99;2175976;80;33604;-59
2021/05/14 09:40:30;;;;;;;4.05;2.10;;;;;;;15.69;65.67;99140.23;2066692;82;29090;-58
2021/05/14 09:43:53;;;;;;;3.15;2.10;;;;;;;15.72;65.32;99145.36;2025587;87;27929;-58
2021/05/14 09:46:59;;;;;;;5.55;3.27;;;;;;;15.76;65.43;99148.15;2064499;86;29139;-59
2021/05/14 09:50:23;;;;;;;2.52;1.80;;;;;;;15.89;65.55;99152.47;2048082;85;32027;-62
2021/05/14 09:53:25;;;;;;;2.05;1.95;;;;;;;16.02;65.25;99157.11;2037305;85;32845;-58
2021/05/14 09:56:34;;;;;;;3.77;3.00;;;;;;;16.09;65.02;99154.22;2042280;85;30146;-58
2021/05/14 09:59:36;;;;;;;3.10;2.52;;;;;;;16.13;64.95;99154.78;2044384;85;27744;-57
2021/05/14 10:02:41;;;;;;;4.05;3.10;;;;;;;16.19;64.78;99162.34;2039724;85;29744;-57
2021/05/14 10:05:48;;;;;;;4.25;3.70;;;;;;;16.21;64.47;99159.00;2041846;85;31060;-58
2021/05/14 10:08:51;;;;;;;3.55;3.25;;;;;;;16.22;64.44;99167.44;2032798;85;33454;-58
2021/05/14 10:11:53;;;;;;;12.58;10.15;;;;;;;16.22;64.31;99166.59;2036007;85;29014;-63
2021/05/14 10:14:58;;;;;;;3.72;2.62;;;;;;;16.18;64.10;99161.11;2042095;85;27705;-59
2021/05/14 10:18:03;;;;;;;6.60;2.60;;;;;;;16.10;64.06;99166.73;2136439;80;28657;-60
2021/05/14 10:21:08;;;;;;;5.97;3.33;;;;;;;16.05;63.93;99166.80;2139440;81;31352;-60
2021/05/14 10:24:10;;;;;;;5.87;3.25;;;;;;;16.06;64.25;99169.34;2176033;81;33839;-59
2021/05/14 10:27:21;;;;;;;4.87;3.67;;;;;;;16.10;64.17;99169.91;2175371;81;33518;-59
2021/05/14 10:30:23;;;;;;;3.85;3.42;;;;;;;16.17;64.24;99174.26;2175704;80;27710;-61
2021/05/14 10:33:57;;;;;;;5.95;3.47;;;;;;;16.17;64.03;99175.61;2178234;81;28689;-59
2021/05/14 10:36:59;;;;;;;3.35;3.05;;;;;;;16.14;63.98;99181.29;2161622;81;31362;-59
2021/05/14 10:40:01;;;;;;;7.15;4.00;;;;;;;16.14;64.16;99178.59;2178882;81;32980;-59
2021/05/14 10:43:12;;;;;;;3.50;3.20;;;;;;;16.18;63.81;99186.78;2178260;81;30136;-59
2021/05/14 10:46:15;;;;;;;3.92;3.22;;;;;;;16.07;63.73;99190.45;2177399;81;27694;-58
2021/05/14 10:49:17;;;;;;;4.53;3.45;;;;;;;15.89;63.75;99182.17;2145011;81;29769;-59
2021/05/14 10:52:19;;;;;;;6.28;3.90;;;;;;;15.79;64.16;99192.44;2176227;81;32296;-59
2021/05/14 10:55:31;;;;;;;5.08;4.58;;;;;;;15.79;64.27;99190.22;2172552;80;34030;-59
2021/05/14 10:58:48;;;;;;;7.78;4.42;;;;;;;15.80;64.31;99200.03;2171768;81;29029;-59
2021/05/14 11:01:50;;;;;;;11.88;7.72;;;;;;;15.80;63.95;99198.67;2174798;81;27692;-61
2021/05/14 11:04:52;;;;;;;9.48;6.15;;;;;;;15.80;64.10;99202.73;2177986;81;29395;-58
2021/05/14 11:07:54;;;;;;;10.68;7.28;;;;;;;15.85;63.91;99199.16;2178336;81;32250;-59
2021/05/14 11:11:04;;;;;;;5.92;5.00;;;;;;;16.00;63.99;99202.82;2178214;81;34021;-59
2021/05/14 11:14:16;;;;;;;5.65;4.53;;;;;;;16.16;63.93;99202.27;2176314;81;30276;-65
2021/05/14 11:17:19;;;;;;;9.18;6.12;;;;;;;16.33;63.50;99202.94;2174345;80;27735;-59
2021/05/14 11:20:23;;;;;;;6.33;5.03;;;;;;;16.42;63.23;99214.75;2176377;81;28657;-60
2021/05/14 11:23:39;;;;;;;7.78;6.08;;;;;;;16.49;63.24;99213.69;2172904;81;31757;-60
2021/05/14 11:26:49;;;;;;;10.58;6.92;;;;;;;16.52;62.92;99217.47;2172689;81;33826;-60
2021/05/14 11:29:54;;;;;;;7.80;5.30;;;;;;;16.62;62.97;99217.48;2171118;81;29826;-60
2021/05/14 11:32:55;;;;;;;11.75;10.48;;;;;;;16.68;62.39;99220.47;2196168;80;27653;-59
2021/05/14 11:35:57;;;;;;;11.00;5.17;;;;;;;16.77;62.61;99224.16;2194913;80;28391;-60
2021/05/14 11:38:59;;;;;;;13.15;10.00;;;;;;;16.89;62.26;99211.83;2164923;82;32140;-60
2021/05/14 11:42:02;;;;;;;16.95;13.60;;;;;;;16.98;62.35;99215.08;2170000;81;32735;-60
2021/05/14 11:45:08;;;;;;;16.57;12.40;;;;;;;17.12;62.21;99212.43;2160635;81;30084;-60
2021/05/14 11:48:15;;;;;;;7.75;6.75;;;;;;;17.21;61.62;99214.25;2141868;83;27666;-59
2021/05/14 11:51:17;;;;;;;5.90;5.30;;;;;;;17.21;61.54;99228.30;2163426;81;29530;-59
2021/05/14 11:54:19;;;;;;;5.65;5.10;;;;;;;17.16;61.07;99223.30;2196063;80;32139;-60
2021/05/14 11:57:31;;;;;;;10.18;5.83;;;;;;;17.11;60.96;99230.50;2196866;80;33927;-60
2021/05/14 12:00:36;;;;;;;6.15;5.55;;;;;;;17.11;60.96;99230.50;2196593;81;29174;-59
2021/05/14 12:03:37;;;;;;;7.20;6.03;;;;;;;17.02;60.51;99234.09;2196552;81;27676;-60
2021/05/14 12:06:50;;;;;;;6.17;5.58;;;;;;;16.97;60.79;99236.36;2185031;80;28981;-60
2021/05/14 12:10:04;;;;;;;5.87;5.37;;;;;;;16.98;60.59;99234.85;2187189;81;31368;-60
2021/05/14 12:13:06;;;;;;;8.30;5.92;;;;;;;17.06;60.68;99240.06;2182372;81;33688;-59
2021/05/14 12:16:11;;;;;;;7.25;5.58;;;;;;;17.14;60.57;99239.69;2169447;81;29777;-60
2021/05/14 12:19:12;;;;;;;6.37;5.83;;;;;;;17.20;60.38;99243.66;2134420;83;27608;-60
2021/05/14 12:22:14;;;;;;;11.03;7.72;;;;;;;17.33;60.47;99243.84;2132884;83;29037;-59
2021/05/14 12:25:16;;;;;;;7.95;6.90;;;;;;;17.48;60.17;99241.53;2133638;83;32140;-60
2021/05/14 12:28:42;;;;;;;7.03;6.33;;;;;;;17.60;59.93;99244.41;2133665;83;34189;-60
2021/05/14 12:31:44;;;;;;;5.20;4.70;;;;;;;17.68;59.57;99243.19;2124547;83;29112;-59
2021/05/14 12:34:52;;;;;;;6.75;6.03;;;;;;;17.70;59.15;99247.96;2128017;83;27552;-60
2021/05/14 12:37:58;;;;;;;7.28;4.65;;;;;;;17.70;59.13;99249.31;2140337;83;29600;-60
2021/05/14 12:41:00;;;;;;;6.62;5.70;;;;;;;17.76;59.15;99250.05;2095306;84;32156;-59
2021/05/14 12:44:28;;;;;;;4.92;4.47;;;;;;;17.77;59.02;99245.51;2133562;83;33917;-60
2021/05/14 12:47:31;;;;;;;3.85;3.52;;;;;;;17.74;58.81;99253.41;2133611;83;29900;-60
2021/05/14 12:50:34;;;;;;;4.67;3.72;;;;;;;17.65;58.68;99259.73;2133542;83;27607;-60
2021/05/14 12:53:36;;;;;;;4.65;4.25;;;;;;;17.57;58.82;99261.82;2065589;86;29397;-59
2021/05/14 12:56:40;;;;;;;5.22;4.20;;;;;;;17.50;58.83;99267.97;2044541;87;30280;-59
2021/05/14 12:59:50;;;;;;;7.30;4.03;;;;;;;17.45;58.68;99271.97;2104317;84;32829;-59
2021/05/14 13:03:13;;;;;;;5.87;3.30;;;;;;;17.50;58.90;99272.88;2131788;83;29884;-61
2021/05/14 13:09:42;;;;;;;2.90;2.60;;;;;;;18.14;58.61;99276.31;2199378;80;28660;-59
2021/05/14 13:12:44;;;;;;;4.67;2.60;;;;;;;18.14;58.61;99276.31;2198133;80;30392;-61
2021/05/14 13:15:47;;;;;;;2.67;2.47;;;;;;;18.17;57.95;99267.37;2199810;80;33485;-60
2021/05/14 13:18:49;;;;;;;3.85;2.67;;;;;;;18.17;57.69;99280.08;2161852;82;29052;-61
2021/05/14 13:21:51;;;;;;;3.77;2.55;;;;;;;18.09;57.62;99279.48;2161038;82;27643;-61
2021/05/14 13:24:53;;;;;;;3.35;2.92;;;;;;;18.01;57.46;99287.00;2200622;80;29770;-64
2021/05/14 13:27:55;;;;;;;6.12;2.77;;;;;;;17.91;57.69;99291.08;2200821;80;32407;-59
2021/05/14 13:30:57;;;;;;;3.08;2.37;;;;;;;17.79;57.65;99293.59;2200848;80;34332;-62
2021/05/14 13:33:59;;;;;;;2.77;2.40;;;;;;;17.71;57.59;99289.43;2161681;82;29799;-62
2021/05/14 13:37:01;;;;;;;5.15;2.75;;;;;;;17.69;57.29;99295.01;2200934;80;27615;-69
2021/05/14 13:40:05;;;;;;;3.08;2.75;;;;;;;17.54;57.37;99289.19;2201229;80;28983;-69
2021/05/14 13:43:07;;;;;;;5.55;2.90;;;;;;;17.51;57.30;99301.66;2161953;82;31057;-68
2021/05/14 13:46:10;;;;;;;23.25;5.50;;;;;;;17.22;57.55;99283.63;2200609;80;33997;-62
2021/05/14 13:49:13;;;;;;;3.42;2.67;;;;;;;17.22;57.55;99283.63;2161751;82;29036;-60
2021/05/14 13:52:16;;;;;;;3.72;2.30;;;;;;;17.36;57.77;99308.53;2200674;80;28255;-62
2021/05/14 13:55:17;;;;;;;2.98;2.60;;;;;;;17.43;57.83;99309.16;2200593;80;29409;-60
2021/05/14 13:58:19;;;;;;;7.08;2.47;;;;;;;17.52;57.63;99312.02;2200628;80;32334;-60
2021/05/14 14:01:22;;;;;;;5.65;2.42;;;;;;;17.53;57.50;99320.49;2161651;82;33270;-63
2021/05/14 14:04:23;;;;;;;7.83;2.55;;;;;;;17.47;57.32;99321.90;2200914;80;28905;-66
2021/05/14 14:07:26;;;;;;;3.10;2.80;;;;;;;17.39;57.39;99323.14;2200637;80;27627;-60
2021/05/14 14:10:28;;;;;;;2.75;2.45;;;;;;;17.33;57.17;99323.70;2200480;80;28643;-59
2021/05/14 14:13:29;;;;;;;2.92;2.50;;;;;;;17.19;57.00;99327.21;2200601;80;32091;-60
2021/05/14 14:16:31;;;;;;;3.12;2.55;;;;;;;17.06;57.31;99309.90;2200639;80;33309;-60
2021/05/14 14:19:33;;;;;;;3.92;2.58;;;;;;;17.18;57.24;99322.80;2200678;80;29432;-60
2021/05/14 14:22:35;;;;;;;5.22;3.58;;;;;;;17.26;56.86;99322.08;2201121;80;27541;-60
2021/05/14 14:25:37;;;;;;;7.62;4.30;;;;;;;17.34;56.80;99325.41;2158576;82;28841;-62
2021/05/14 14:28:39;;;;;;;6.65;4.12;;;;;;;17.37;56.95;99323.30;2200519;80;32089;-62